sensor_id;sensor_type;location;lat;lon;timestamp;P1;durP1;ratioP1;P2;durP2;ratioP2
39218;SDS011;24934;52.752;6.964;2023-04-06T00:01:38;13.33;;;10.00;;
39218;SDS011;24934;52.752;6.964;2023-04-06T00:04:04;11.40;;;10.13;;
39218;SDS011;24934;52.752;6.964;2023-04-06T00:06:31;11.80;;;10.40;;
39218;SDS011;24934;52.752;6.964;2023-04-06T00:08:57;15.17;;;10.83;;
39218;SDS011;24934;52.752;6.964;2023-04-06T00:11:24;11.97;;;10.87;;
39218;SDS011;24934;52.752;6.964;2023-04-06T00:13:49;12.27;;;10.77;;
39218;SDS011;24934;52.752;6.964;2023-04-06T00:16:19;14.60;;;10.87;;
39218;SDS011;24934;52.752;6.964;2023-04-06T00:18:44;11.93;;;10.47;;
39218;SDS011;24934;52.752;6.964;2023-04-06T00:21:11;13.80;;;11.03;;
39218;SDS011;24934;52.752;6.964;2023-04-06T00:23:41;14.03;;;11.57;;
39218;SDS011;24934;52.752;6.964;2023-04-06T00:26:07;13.30;;;11.47;;
39218;SDS011;24934;52.752;6.964;2023-04-06T00:28:33;12.63;;;11.37;;
39218;SDS011;24934;52.752;6.964;2023-04-06T00:30:59;13.40;;;12.00;;
39218;SDS011;24934;52.752;6.964;2023-04-06T00:33:24;13.60;;;12.07;;
39218;SDS011;24934;52.752;6.964;2023-04-06T00:35:50;12.80;;;11.40;;
39218;SDS011;24934;52.752;6.964;2023-04-06T00:38:16;14.53;;;11.60;;
39218;SDS011;24934;52.752;6.964;2023-04-06T00:40:42;18.43;;;12.27;;
39218;SDS011;24934;52.752;6.964;2023-04-06T00:43:11;15.47;;;12.37;;
39218;SDS011;24934;52.752;6.964;2023-04-06T00:45:37;16.53;;;11.03;;
39218;SDS011;24934;52.752;6.964;2023-04-06T00:48:07;12.87;;;11.57;;
39218;SDS011;24934;52.752;6.964;2023-04-06T00:50:33;17.27;;;12.00;;
39218;SDS011;24934;52.752;6.964;2023-04-06T00:53:00;13.93;;;11.60;;
39218;SDS011;24934;52.752;6.964;2023-04-06T00:55:26;12.70;;;11.40;;
39218;SDS011;24934;52.752;6.964;2023-04-06T00:57:56;14.17;;;12.03;;
39218;SDS011;24934;52.752;6.964;2023-04-06T01:00:23;14.60;;;11.90;;
39218;SDS011;24934;52.752;6.964;2023-04-06T01:02:49;13.43;;;12.03;;
39218;SDS011;24934;52.752;6.964;2023-04-06T01:05:15;19.20;;;12.13;;
39218;SDS011;24934;52.752;6.964;2023-04-06T01:07:44;13.33;;;11.93;;
39218;SDS011;24934;52.752;6.964;2023-04-06T01:10:09;13.13;;;11.73;;
39218;SDS011;24934;52.752;6.964;2023-04-06T01:12:35;14.90;;;12.40;;
39218;SDS011;24934;52.752;6.964;2023-04-06T01:15:02;14.43;;;12.93;;
39218;SDS011;24934;52.752;6.964;2023-04-06T01:17:29;14.13;;;12.63;;
39218;SDS011;24934;52.752;6.964;2023-04-06T01:19:54;13.33;;;11.63;;
39218;SDS011;24934;52.752;6.964;2023-04-06T01:22:20;16.47;;;12.33;;
39218;SDS011;24934;52.752;6.964;2023-04-06T01:24:46;18.07;;;12.50;;
39218;SDS011;24934;52.752;6.964;2023-04-06T01:27:12;17.50;;;13.07;;
39218;SDS011;24934;52.752;6.964;2023-04-06T01:29:38;13.97;;;12.57;;
39218;SDS011;24934;52.752;6.964;2023-04-06T01:32:07;18.43;;;13.17;;
39218;SDS011;24934;52.752;6.964;2023-04-06T01:34:33;17.20;;;12.67;;
39218;SDS011;24934;52.752;6.964;2023-04-06T01:36:59;18.13;;;13.17;;
39218;SDS011;24934;52.752;6.964;2023-04-06T01:39:24;16.53;;;12.63;;
39218;SDS011;24934;52.752;6.964;2023-04-06T01:41:51;14.70;;;12.57;;
39218;SDS011;24934;52.752;6.964;2023-04-06T01:44:16;20.23;;;12.70;;
39218;SDS011;24934;52.752;6.964;2023-04-06T01:46:43;14.37;;;12.87;;
39218;SDS011;24934;52.752;6.964;2023-04-06T01:49:10;16.13;;;12.73;;
39218;SDS011;24934;52.752;6.964;2023-04-06T01:51:36;14.93;;;13.27;;
39218;SDS011;24934;52.752;6.964;2023-04-06T01:54:02;13.83;;;12.27;;
39218;SDS011;24934;52.752;6.964;2023-04-06T01:56:28;15.50;;;13.90;;
39218;SDS011;24934;52.752;6.964;2023-04-06T01:58:53;16.53;;;14.10;;
39218;SDS011;24934;52.752;6.964;2023-04-06T02:01:19;15.20;;;13.60;;
39218;SDS011;24934;52.752;6.964;2023-04-06T02:03:45;19.07;;;14.00;;
39218;SDS011;24934;52.752;6.964;2023-04-06T02:06:11;14.83;;;13.43;;
39218;SDS011;24934;52.752;6.964;2023-04-06T02:08:36;17.33;;;14.83;;
39218;SDS011;24934;52.752;6.964;2023-04-06T02:11:02;15.77;;;13.10;;
39218;SDS011;24934;52.752;6.964;2023-04-06T02:13:28;16.67;;;13.87;;
39218;SDS011;24934;52.752;6.964;2023-04-06T02:15:53;16.30;;;13.90;;
39218;SDS011;24934;52.752;6.964;2023-04-06T02:18:20;16.43;;;13.97;;
39218;SDS011;24934;52.752;6.964;2023-04-06T02:20:53;15.20;;;13.70;;
39218;SDS011;24934;52.752;6.964;2023-04-06T02:23:21;17.63;;;14.23;;
39218;SDS011;24934;52.752;6.964;2023-04-06T02:25:47;17.10;;;13.97;;
39218;SDS011;24934;52.752;6.964;2023-04-06T02:28:13;17.97;;;14.40;;
39218;SDS011;24934;52.752;6.964;2023-04-06T02:30:38;16.87;;;13.90;;
39218;SDS011;24934;52.752;6.964;2023-04-06T02:33:04;16.93;;;14.10;;
39218;SDS011;24934;52.752;6.964;2023-04-06T02:35:30;15.37;;;13.77;;
39218;SDS011;24934;52.752;6.964;2023-04-06T02:37:56;15.90;;;14.20;;
39218;SDS011;24934;52.752;6.964;2023-04-06T02:40:22;16.07;;;13.87;;
39218;SDS011;24934;52.752;6.964;2023-04-06T02:42:48;16.00;;;13.37;;
39218;SDS011;24934;52.752;6.964;2023-04-06T02:45:13;17.40;;;14.33;;
39218;SDS011;24934;52.752;6.964;2023-04-06T02:47:39;16.87;;;13.80;;
39218;SDS011;24934;52.752;6.964;2023-04-06T02:50:05;15.70;;;13.33;;
39218;SDS011;24934;52.752;6.964;2023-04-06T02:52:31;19.50;;;14.07;;
39218;SDS011;24934;52.752;6.964;2023-04-06T02:54:57;18.43;;;14.10;;
39218;SDS011;24934;52.752;6.964;2023-04-06T02:57:23;15.83;;;13.53;;
39218;SDS011;24934;52.752;6.964;2023-04-06T02:59:48;15.03;;;13.50;;
39218;SDS011;24934;52.752;6.964;2023-04-06T03:02:14;15.53;;;13.23;;
39218;SDS011;24934;52.752;6.964;2023-04-06T03:04:40;18.70;;;12.73;;
39218;SDS011;24934;52.752;6.964;2023-04-06T03:07:05;17.73;;;12.70;;
39218;SDS011;24934;52.752;6.964;2023-04-06T03:09:31;17.23;;;12.53;;
39218;SDS011;24934;52.752;6.964;2023-04-06T03:11:56;17.03;;;12.70;;
39218;SDS011;24934;52.752;6.964;2023-04-06T03:14:22;16.63;;;12.23;;
39218;SDS011;24934;52.752;6.964;2023-04-06T03:16:48;14.17;;;12.67;;
39218;SDS011;24934;52.752;6.964;2023-04-06T03:19:14;14.30;;;12.80;;
39218;SDS011;24934;52.752;6.964;2023-04-06T03:21:40;16.90;;;14.00;;
39218;SDS011;24934;52.752;6.964;2023-04-06T03:24:06;19.83;;;13.43;;
39218;SDS011;24934;52.752;6.964;2023-04-06T03:26:32;19.07;;;13.03;;
39218;SDS011;24934;52.752;6.964;2023-04-06T03:28:58;17.70;;;13.13;;
39218;SDS011;24934;52.752;6.964;2023-04-06T03:31:23;18.37;;;13.50;;
39218;SDS011;24934;52.752;6.964;2023-04-06T03:33:49;14.80;;;13.20;;
39218;SDS011;24934;52.752;6.964;2023-04-06T03:36:15;16.67;;;12.87;;
39218;SDS011;24934;52.752;6.964;2023-04-06T03:38:40;14.67;;;12.87;;
39218;SDS011;24934;52.752;6.964;2023-04-06T03:41:06;14.70;;;13.20;;
39218;SDS011;24934;52.752;6.964;2023-04-06T03:43:32;14.97;;;13.37;;
39218;SDS011;24934;52.752;6.964;2023-04-06T03:45:57;15.83;;;12.90;;
39218;SDS011;24934;52.752;6.964;2023-04-06T03:48:23;16.67;;;13.37;;
39218;SDS011;24934;52.752;6.964;2023-04-06T03:50:48;17.77;;;13.47;;
39218;SDS011;24934;52.752;6.964;2023-04-06T03:53:14;17.80;;;14.00;;
39218;SDS011;24934;52.752;6.964;2023-04-06T03:55:40;18.80;;;13.23;;
39218;SDS011;24934;52.752;6.964;2023-04-06T03:58:05;18.87;;;13.57;;
39218;SDS011;24934;52.752;6.964;2023-04-06T04:00:31;17.87;;;14.07;;
39218;SDS011;24934;52.752;6.964;2023-04-06T04:02:57;15.33;;;13.73;;
39218;SDS011;24934;52.752;6.964;2023-04-06T04:05:23;17.50;;;13.63;;
39218;SDS011;24934;52.752;6.964;2023-04-06T04:07:50;17.17;;;13.17;;
39218;SDS011;24934;52.752;6.964;2023-04-06T04:10:17;18.90;;;13.97;;
39218;SDS011;24934;52.752;6.964;2023-04-06T04:12:42;17.37;;;12.77;;
39218;SDS011;24934;52.752;6.964;2023-04-06T04:15:08;17.10;;;14.10;;
39218;SDS011;24934;52.752;6.964;2023-04-06T04:17:34;15.70;;;13.47;;
39218;SDS011;24934;52.752;6.964;2023-04-06T04:20:00;19.97;;;14.10;;
39218;SDS011;24934;52.752;6.964;2023-04-06T04:22:25;20.87;;;14.80;;
39218;SDS011;24934;52.752;6.964;2023-04-06T04:24:52;17.50;;;14.40;;
39218;SDS011;24934;52.752;6.964;2023-04-06T04:27:18;19.50;;;15.10;;
39218;SDS011;24934;52.752;6.964;2023-04-06T04:29:44;17.97;;;14.47;;
39218;SDS011;24934;52.752;6.964;2023-04-06T04:32:10;19.40;;;14.80;;
39218;SDS011;24934;52.752;6.964;2023-04-06T04:34:35;22.13;;;15.97;;
39218;SDS011;24934;52.752;6.964;2023-04-06T04:37:01;19.23;;;15.13;;
39218;SDS011;24934;52.752;6.964;2023-04-06T04:39:26;26.03;;;16.17;;
39218;SDS011;24934;52.752;6.964;2023-04-06T04:41:52;19.90;;;15.97;;
39218;SDS011;24934;52.752;6.964;2023-04-06T04:44:18;23.20;;;16.67;;
39218;SDS011;24934;52.752;6.964;2023-04-06T04:46:44;22.53;;;16.73;;
39218;SDS011;24934;52.752;6.964;2023-04-06T04:49:10;22.33;;;17.03;;
39218;SDS011;24934;52.752;6.964;2023-04-06T04:51:36;22.40;;;16.30;;
39218;SDS011;24934;52.752;6.964;2023-04-06T04:54:04;19.47;;;15.00;;
39218;SDS011;24934;52.752;6.964;2023-04-06T04:56:29;22.43;;;15.90;;
39218;SDS011;24934;52.752;6.964;2023-04-06T04:58:58;22.47;;;16.70;;
39218;SDS011;24934;52.752;6.964;2023-04-06T05:01:23;21.27;;;16.80;;
39218;SDS011;24934;52.752;6.964;2023-04-06T05:03:49;23.30;;;16.10;;
39218;SDS011;24934;52.752;6.964;2023-04-06T05:06:15;20.50;;;16.27;;
39218;SDS011;24934;52.752;6.964;2023-04-06T05:08:41;23.30;;;17.53;;
39218;SDS011;24934;52.752;6.964;2023-04-06T05:11:07;21.13;;;16.63;;
39218;SDS011;24934;52.752;6.964;2023-04-06T05:13:33;18.53;;;16.03;;
39218;SDS011;24934;52.752;6.964;2023-04-06T05:15:59;18.87;;;15.00;;
39218;SDS011;24934;52.752;6.964;2023-04-06T05:18:25;20.37;;;16.07;;
39218;SDS011;24934;52.752;6.964;2023-04-06T05:20:51;18.13;;;16.23;;
39218;SDS011;24934;52.752;6.964;2023-04-06T05:23:17;22.87;;;16.60;;
39218;SDS011;24934;52.752;6.964;2023-04-06T05:25:42;20.60;;;16.60;;
39218;SDS011;24934;52.752;6.964;2023-04-06T05:28:10;19.20;;;16.43;;
39218;SDS011;24934;52.752;6.964;2023-04-06T05:30:39;20.10;;;17.27;;
39218;SDS011;24934;52.752;6.964;2023-04-06T05:33:05;20.37;;;16.93;;
39218;SDS011;24934;52.752;6.964;2023-04-06T05:35:30;22.13;;;16.90;;
39218;SDS011;24934;52.752;6.964;2023-04-06T05:37:56;20.40;;;17.10;;
39218;SDS011;24934;52.752;6.964;2023-04-06T05:40:21;21.07;;;16.87;;
39218;SDS011;24934;52.752;6.964;2023-04-06T05:42:47;24.13;;;16.80;;
39218;SDS011;24934;52.752;6.964;2023-04-06T05:45:14;21.93;;;17.50;;
39218;SDS011;24934;52.752;6.964;2023-04-06T05:47:42;24.23;;;17.57;;
39218;SDS011;24934;52.752;6.964;2023-04-06T05:50:12;20.47;;;17.53;;
39218;SDS011;24934;52.752;6.964;2023-04-06T05:52:39;18.60;;;16.60;;
39218;SDS011;24934;52.752;6.964;2023-04-06T05:55:08;18.00;;;15.97;;
39218;SDS011;24934;52.752;6.964;2023-04-06T05:57:34;21.80;;;16.40;;
39218;SDS011;24934;52.752;6.964;2023-04-06T05:59:59;18.57;;;16.57;;
39218;SDS011;24934;52.752;6.964;2023-04-06T06:02:32;19.80;;;15.57;;
39218;SDS011;24934;52.752;6.964;2023-04-06T06:04:57;17.43;;;15.57;;
39218;SDS011;24934;52.752;6.964;2023-04-06T06:07:23;18.47;;;15.40;;
39218;SDS011;24934;52.752;6.964;2023-04-06T06:09:49;16.03;;;14.27;;
39218;SDS011;24934;52.752;6.964;2023-04-06T06:12:15;20.03;;;15.83;;
39218;SDS011;24934;52.752;6.964;2023-04-06T06:14:40;17.17;;;15.40;;
39218;SDS011;24934;52.752;6.964;2023-04-06T06:17:06;18.53;;;16.57;;
39218;SDS011;24934;52.752;6.964;2023-04-06T06:19:32;17.93;;;16.20;;
39218;SDS011;24934;52.752;6.964;2023-04-06T06:21:57;18.30;;;15.43;;
39218;SDS011;24934;52.752;6.964;2023-04-06T06:24:23;18.17;;;16.30;;
39218;SDS011;24934;52.752;6.964;2023-04-06T06:26:52;18.33;;;16.47;;
39218;SDS011;24934;52.752;6.964;2023-04-06T06:29:18;18.30;;;16.03;;
39218;SDS011;24934;52.752;6.964;2023-04-06T06:31:43;17.90;;;15.93;;
39218;SDS011;24934;52.752;6.964;2023-04-06T06:34:09;18.50;;;16.50;;
39218;SDS011;24934;52.752;6.964;2023-04-06T06:36:35;18.37;;;16.37;;
39218;SDS011;24934;52.752;6.964;2023-04-06T06:39:01;18.67;;;16.60;;
39218;SDS011;24934;52.752;6.964;2023-04-06T06:41:28;23.27;;;17.23;;
39218;SDS011;24934;52.752;6.964;2023-04-06T06:43:54;18.07;;;15.60;;
39218;SDS011;24934;52.752;6.964;2023-04-06T06:46:20;18.83;;;16.10;;
39218;SDS011;24934;52.752;6.964;2023-04-06T06:48:45;19.40;;;16.10;;
39218;SDS011;24934;52.752;6.964;2023-04-06T06:51:11;22.27;;;16.37;;
39218;SDS011;24934;52.752;6.964;2023-04-06T06:53:38;17.33;;;15.63;;
39218;SDS011;24934;52.752;6.964;2023-04-06T06:56:04;17.57;;;15.73;;
39218;SDS011;24934;52.752;6.964;2023-04-06T06:58:30;16.93;;;15.23;;
39218;SDS011;24934;52.752;6.964;2023-04-06T07:00:58;19.23;;;14.83;;
39218;SDS011;24934;52.752;6.964;2023-04-06T07:03:24;18.60;;;15.17;;
39218;SDS011;24934;52.752;6.964;2023-04-06T07:05:50;17.33;;;15.53;;
39218;SDS011;24934;52.752;6.964;2023-04-06T07:08:22;17.43;;;15.50;;
39218;SDS011;24934;52.752;6.964;2023-04-06T07:10:49;16.83;;;14.23;;
39218;SDS011;24934;52.752;6.964;2023-04-06T07:13:17;18.67;;;14.27;;
39218;SDS011;24934;52.752;6.964;2023-04-06T07:15:50;18.43;;;14.43;;
39218;SDS011;24934;52.752;6.964;2023-04-06T07:18:17;15.50;;;13.90;;
39218;SDS011;24934;52.752;6.964;2023-04-06T07:20:43;18.75;;;14.13;;
39218;SDS011;24934;52.752;6.964;2023-04-06T07:23:12;17.85;;;14.00;;
39218;SDS011;24934;52.752;6.964;2023-04-06T07:25:37;22.65;;;14.45;;
39218;SDS011;24934;52.752;6.964;2023-04-06T07:28:03;17.37;;;13.90;;
39218;SDS011;24934;52.752;6.964;2023-04-06T07:30:29;19.30;;;14.50;;
39218;SDS011;24934;52.752;6.964;2023-04-06T07:32:55;19.77;;;13.90;;
39218;SDS011;24934;52.752;6.964;2023-04-06T07:35:21;16.67;;;14.27;;
39218;SDS011;24934;52.752;6.964;2023-04-06T07:37:48;20.13;;;14.53;;
39218;SDS011;24934;52.752;6.964;2023-04-06T07:40:13;19.83;;;15.33;;
39218;SDS011;24934;52.752;6.964;2023-04-06T07:42:39;16.33;;;14.57;;
39218;SDS011;24934;52.752;6.964;2023-04-06T07:45:05;15.93;;;14.32;;
39218;SDS011;24934;52.752;6.964;2023-04-06T07:47:31;16.77;;;14.30;;
39218;SDS011;24934;52.752;6.964;2023-04-06T07:49:57;18.98;;;13.82;;
39218;SDS011;24934;52.752;6.964;2023-04-06T07:52:22;17.48;;;14.18;;
39218;SDS011;24934;52.752;6.964;2023-04-06T07:54:48;16.58;;;14.75;;
39218;SDS011;24934;52.752;6.964;2023-04-06T07:57:14;18.20;;;15.02;;
39218;SDS011;24934;52.752;6.964;2023-04-06T07:59:40;16.05;;;14.32;;
39218;SDS011;24934;52.752;6.964;2023-04-06T08:02:05;20.85;;;16.48;;
39218;SDS011;24934;52.752;6.964;2023-04-06T08:04:31;17.50;;;15.70;;
39218;SDS011;24934;52.752;6.964;2023-04-06T08:06:56;20.20;;;15.57;;
39218;SDS011;24934;52.752;6.964;2023-04-06T08:09:22;18.63;;;16.05;;
39218;SDS011;24934;52.752;6.964;2023-04-06T08:11:48;17.73;;;15.85;;
39218;SDS011;24934;52.752;6.964;2023-04-06T08:14:14;18.13;;;15.88;;
39218;SDS011;24934;52.752;6.964;2023-04-06T08:16:40;19.48;;;15.73;;
39218;SDS011;24934;52.752;6.964;2023-04-06T08:19:06;17.60;;;15.70;;
39218;SDS011;24934;52.752;6.964;2023-04-06T08:21:34;20.40;;;15.85;;
39218;SDS011;24934;52.752;6.964;2023-04-06T08:24:00;18.58;;;15.95;;
39218;SDS011;24934;52.752;6.964;2023-04-06T08:26:26;21.55;;;17.17;;
39218;SDS011;24934;52.752;6.964;2023-04-06T08:28:52;27.35;;;16.80;;
39218;SDS011;24934;52.752;6.964;2023-04-06T08:31:17;19.40;;;17.25;;
39218;SDS011;24934;52.752;6.964;2023-04-06T08:33:43;23.75;;;17.88;;
39218;SDS011;24934;52.752;6.964;2023-04-06T08:36:09;22.52;;;16.95;;
39218;SDS011;24934;52.752;6.964;2023-04-06T08:38:36;23.52;;;17.20;;
39218;SDS011;24934;52.752;6.964;2023-04-06T08:41:12;19.63;;;17.25;;
39218;SDS011;24934;52.752;6.964;2023-04-06T08:43:43;19.17;;;17.20;;
39218;SDS011;24934;52.752;6.964;2023-04-06T08:46:12;18.85;;;17.00;;
39218;SDS011;24934;52.752;6.964;2023-04-06T08:48:40;20.50;;;18.33;;
39218;SDS011;24934;52.752;6.964;2023-04-06T08:51:09;20.65;;;17.67;;
39218;SDS011;24934;52.752;6.964;2023-04-06T08:53:35;19.67;;;17.67;;
39218;SDS011;24934;52.752;6.964;2023-04-06T08:56:02;19.75;;;17.65;;
39218;SDS011;24934;52.752;6.964;2023-04-06T08:58:34;21.00;;;18.73;;
39218;SDS011;24934;52.752;6.964;2023-04-06T09:01:02;26.38;;;18.52;;
39218;SDS011;24934;52.752;6.964;2023-04-06T09:03:35;21.23;;;18.20;;
39218;SDS011;24934;52.752;6.964;2023-04-06T09:06:03;21.08;;;17.52;;
39218;SDS011;24934;52.752;6.964;2023-04-06T09:08:30;21.20;;;18.58;;
39218;SDS011;24934;52.752;6.964;2023-04-06T09:10:55;23.23;;;18.75;;
39218;SDS011;24934;52.752;6.964;2023-04-06T09:13:21;22.05;;;18.15;;
39218;SDS011;24934;52.752;6.964;2023-04-06T09:15:46;21.60;;;19.23;;
39218;SDS011;24934;52.752;6.964;2023-04-06T09:18:30;20.25;;;18.15;;
39218;SDS011;24934;52.752;6.964;2023-04-06T09:21:00;24.05;;;18.80;;
39218;SDS011;24934;52.752;6.964;2023-04-06T09:23:27;21.35;;;18.50;;
39218;SDS011;24934;52.752;6.964;2023-04-06T09:26:04;21.73;;;19.27;;
39218;SDS011;24934;52.752;6.964;2023-04-06T09:28:47;21.10;;;18.80;;
39218;SDS011;24934;52.752;6.964;2023-04-06T09:31:15;21.30;;;18.75;;
39218;SDS011;24934;52.752;6.964;2023-04-06T09:33:43;20.35;;;18.25;;
39218;SDS011;24934;52.752;6.964;2023-04-06T09:36:10;21.65;;;19.45;;
39218;SDS011;24934;52.752;6.964;2023-04-06T09:38:51;30.23;;;20.10;;
39218;SDS011;24934;52.752;6.964;2023-04-06T09:41:24;22.15;;;19.55;;
39218;SDS011;24934;52.752;6.964;2023-04-06T09:43:51;22.33;;;19.05;;
39218;SDS011;24934;52.752;6.964;2023-04-06T09:46:26;22.35;;;19.00;;
39218;SDS011;24934;52.752;6.964;2023-04-06T09:48:52;24.58;;;19.85;;
39218;SDS011;24934;52.752;6.964;2023-04-06T09:51:18;26.02;;;19.70;;
39218;SDS011;24934;52.752;6.964;2023-04-06T09:53:47;23.80;;;19.23;;
39218;SDS011;24934;52.752;6.964;2023-04-06T09:56:17;21.30;;;18.05;;
39218;SDS011;24934;52.752;6.964;2023-04-06T09:58:52;24.45;;;18.58;;
39218;SDS011;24934;52.752;6.964;2023-04-06T10:01:22;26.60;;;22.33;;
39218;SDS011;24934;52.752;6.964;2023-04-06T10:06:32;26.95;;;21.55;;
39218;SDS011;24934;52.752;6.964;2023-04-06T10:09:00;30.35;;;22.42;;
39218;SDS011;24934;52.752;6.964;2023-04-06T10:11:28;25.80;;;21.95;;
39218;SDS011;24934;52.752;6.964;2023-04-06T10:13:55;28.05;;;22.52;;
39218;SDS011;24934;52.752;6.964;2023-04-06T10:16:21;28.75;;;23.05;;
39218;SDS011;24934;52.752;6.964;2023-04-06T10:18:50;28.27;;;22.10;;
39218;SDS011;24934;52.752;6.964;2023-04-06T10:21:21;31.70;;;24.02;;
39218;SDS011;24934;52.752;6.964;2023-04-06T10:23:52;29.77;;;23.33;;
39218;SDS011;24934;52.752;6.964;2023-04-06T10:26:22;28.38;;;22.38;;
39218;SDS011;24934;52.752;6.964;2023-04-06T10:28:49;30.38;;;23.10;;
39218;SDS011;24934;52.752;6.964;2023-04-06T10:31:15;31.95;;;24.35;;
39218;SDS011;24934;52.752;6.964;2023-04-06T10:33:55;34.47;;;24.25;;
39218;SDS011;24934;52.752;6.964;2023-04-06T10:36:32;28.80;;;23.67;;
39218;SDS011;24934;52.752;6.964;2023-04-06T10:38:59;31.45;;;24.25;;
39218;SDS011;24934;52.752;6.964;2023-04-06T10:41:35;28.80;;;23.80;;
39218;SDS011;24934;52.752;6.964;2023-04-06T10:44:05;30.00;;;25.30;;
39218;SDS011;24934;52.752;6.964;2023-04-06T10:46:32;32.25;;;25.83;;
39218;SDS011;24934;52.752;6.964;2023-04-06T10:49:09;32.63;;;26.52;;
39218;SDS011;24934;52.752;6.964;2023-04-06T10:51:37;33.95;;;25.83;;
39218;SDS011;24934;52.752;6.964;2023-04-06T10:54:03;33.33;;;26.17;;
39218;SDS011;24934;52.752;6.964;2023-04-06T10:56:31;33.22;;;25.85;;
39218;SDS011;24934;52.752;6.964;2023-04-06T10:58:59;33.20;;;24.35;;
39218;SDS011;24934;52.752;6.964;2023-04-06T11:01:25;34.58;;;25.10;;
39218;SDS011;24934;52.752;6.964;2023-04-06T11:03:53;30.95;;;25.10;;
39218;SDS011;24934;52.752;6.964;2023-04-06T11:06:24;29.73;;;24.70;;
39218;SDS011;24934;52.752;6.964;2023-04-06T11:08:51;34.88;;;25.77;;
39218;SDS011;24934;52.752;6.964;2023-04-06T11:11:19;32.22;;;24.55;;
39218;SDS011;24934;52.752;6.964;2023-04-06T11:13:50;32.25;;;24.38;;
39218;SDS011;24934;52.752;6.964;2023-04-06T11:16:28;33.25;;;26.80;;
39218;SDS011;24934;52.752;6.964;2023-04-06T11:18:57;35.53;;;27.40;;
39218;SDS011;24934;52.752;6.964;2023-04-06T11:21:47;29.13;;;25.80;;
39218;SDS011;24934;52.752;6.964;2023-04-06T11:24:15;32.60;;;25.92;;
39218;SDS011;24934;52.752;6.964;2023-04-06T11:26:43;31.25;;;25.52;;
39218;SDS011;24934;52.752;6.964;2023-04-06T11:29:14;35.13;;;24.92;;
39218;SDS011;24934;52.752;6.964;2023-04-06T11:31:42;31.35;;;24.38;;
39218;SDS011;24934;52.752;6.964;2023-04-06T11:34:11;30.77;;;23.75;;
39218;SDS011;24934;52.752;6.964;2023-04-06T11:36:41;30.48;;;24.40;;
39218;SDS011;24934;52.752;6.964;2023-04-06T11:39:07;30.45;;;24.90;;
39218;SDS011;24934;52.752;6.964;2023-04-06T11:41:32;31.30;;;25.27;;
39218;SDS011;24934;52.752;6.964;2023-04-06T11:44:00;34.13;;;24.85;;
39218;SDS011;24934;52.752;6.964;2023-04-06T11:46:27;29.83;;;24.10;;
39218;SDS011;24934;52.752;6.964;2023-04-06T11:48:53;33.55;;;24.85;;
39218;SDS011;24934;52.752;6.964;2023-04-06T11:51:26;32.25;;;25.75;;
39218;SDS011;24934;52.752;6.964;2023-04-06T11:53:53;35.45;;;26.10;;
39218;SDS011;24934;52.752;6.964;2023-04-06T11:56:28;31.40;;;25.58;;
39218;SDS011;24934;52.752;6.964;2023-04-06T11:58:55;34.38;;;25.73;;
39218;SDS011;24934;52.752;6.964;2023-04-06T12:01:22;34.20;;;26.17;;
39218;SDS011;24934;52.752;6.964;2023-04-06T12:03:49;31.85;;;25.17;;
39218;SDS011;24934;52.752;6.964;2023-04-06T12:06:16;32.70;;;26.15;;
39218;SDS011;24934;52.752;6.964;2023-04-06T12:08:42;35.70;;;27.17;;
39218;SDS011;24934;52.752;6.964;2023-04-06T12:11:08;33.90;;;25.77;;
39218;SDS011;24934;52.752;6.964;2023-04-06T12:13:33;35.40;;;27.02;;
39218;SDS011;24934;52.752;6.964;2023-04-06T12:15:59;29.88;;;25.30;;
39218;SDS011;24934;52.752;6.964;2023-04-06T12:18:25;35.42;;;27.02;;
39218;SDS011;24934;52.752;6.964;2023-04-06T12:20:51;33.53;;;26.48;;
39218;SDS011;24934;52.752;6.964;2023-04-06T12:23:18;34.90;;;27.48;;
39218;SDS011;24934;52.752;6.964;2023-04-06T12:25:44;37.25;;;27.08;;
39218;SDS011;24934;52.752;6.964;2023-04-06T12:28:10;36.08;;;26.23;;
39218;SDS011;24934;52.752;6.964;2023-04-06T12:30:36;33.30;;;26.30;;
39218;SDS011;24934;52.752;6.964;2023-04-06T12:33:01;31.85;;;25.48;;
39218;SDS011;24934;52.752;6.964;2023-04-06T12:35:27;34.72;;;26.05;;
39218;SDS011;24934;52.752;6.964;2023-04-06T12:37:52;35.70;;;26.13;;
39218;SDS011;24934;52.752;6.964;2023-04-06T12:40:18;34.47;;;26.50;;
39218;SDS011;24934;52.752;6.964;2023-04-06T12:42:45;33.80;;;25.55;;
39218;SDS011;24934;52.752;6.964;2023-04-06T12:45:11;36.95;;;26.77;;
39218;SDS011;24934;52.752;6.964;2023-04-06T12:47:37;35.08;;;26.70;;
39218;SDS011;24934;52.752;6.964;2023-04-06T12:50:03;33.13;;;25.70;;
39218;SDS011;24934;52.752;6.964;2023-04-06T12:52:30;36.83;;;26.70;;
39218;SDS011;24934;52.752;6.964;2023-04-06T12:54:57;37.47;;;26.00;;
39218;SDS011;24934;52.752;6.964;2023-04-06T12:57:24;36.90;;;26.73;;
39218;SDS011;24934;52.752;6.964;2023-04-06T12:59:51;38.00;;;26.48;;
39218;SDS011;24934;52.752;6.964;2023-04-06T13:02:17;34.90;;;25.67;;
39218;SDS011;24934;52.752;6.964;2023-04-06T13:04:45;36.42;;;25.25;;
39218;SDS011;24934;52.752;6.964;2023-04-06T13:07:10;34.30;;;25.92;;
39218;SDS011;24934;52.752;6.964;2023-04-06T13:09:36;34.63;;;25.52;;
39218;SDS011;24934;52.752;6.964;2023-04-06T13:12:02;36.17;;;25.90;;
39218;SDS011;24934;52.752;6.964;2023-04-06T13:14:27;33.42;;;25.35;;
39218;SDS011;24934;52.752;6.964;2023-04-06T13:16:53;35.05;;;25.75;;
39218;SDS011;24934;52.752;6.964;2023-04-06T13:19:19;35.15;;;25.55;;
39218;SDS011;24934;52.752;6.964;2023-04-06T13:21:44;36.85;;;27.10;;
39218;SDS011;24934;52.752;6.964;2023-04-06T13:24:10;36.75;;;26.95;;
39218;SDS011;24934;52.752;6.964;2023-04-06T13:26:36;35.38;;;25.70;;
39218;SDS011;24934;52.752;6.964;2023-04-06T13:29:01;37.53;;;26.45;;
39218;SDS011;24934;52.752;6.964;2023-04-06T13:31:27;34.25;;;25.75;;
39218;SDS011;24934;52.752;6.964;2023-04-06T13:33:53;35.25;;;25.13;;
39218;SDS011;24934;52.752;6.964;2023-04-06T13:36:19;37.08;;;26.67;;
39218;SDS011;24934;52.752;6.964;2023-04-06T13:38:45;34.17;;;26.35;;
39218;SDS011;24934;52.752;6.964;2023-04-06T13:41:17;32.40;;;25.75;;
39218;SDS011;24934;52.752;6.964;2023-04-06T13:43:45;34.67;;;26.70;;
39218;SDS011;24934;52.752;6.964;2023-04-06T13:46:11;38.17;;;26.45;;
39218;SDS011;24934;52.752;6.964;2023-04-06T13:48:37;34.17;;;26.00;;
39218;SDS011;24934;52.752;6.964;2023-04-06T13:51:11;34.97;;;26.88;;
39218;SDS011;24934;52.752;6.964;2023-04-06T13:53:38;36.58;;;26.65;;
39218;SDS011;24934;52.752;6.964;2023-04-06T13:56:05;35.13;;;25.65;;
39218;SDS011;24934;52.752;6.964;2023-04-06T13:58:31;36.45;;;27.08;;
39218;SDS011;24934;52.752;6.964;2023-04-06T14:01:06;37.22;;;26.90;;
39218;SDS011;24934;52.752;6.964;2023-04-06T14:03:34;36.10;;;26.42;;
39218;SDS011;24934;52.752;6.964;2023-04-06T14:06:00;35.25;;;26.02;;
39218;SDS011;24934;52.752;6.964;2023-04-06T14:08:26;32.90;;;25.13;;
39218;SDS011;24934;52.752;6.964;2023-04-06T14:10:51;31.45;;;23.25;;
39218;SDS011;24934;52.752;6.964;2023-04-06T14:13:17;33.35;;;23.48;;
39218;SDS011;24934;52.752;6.964;2023-04-06T14:15:44;36.55;;;24.73;;
39218;SDS011;24934;52.752;6.964;2023-04-06T14:18:09;33.42;;;25.00;;
39218;SDS011;24934;52.752;6.964;2023-04-06T14:20:35;32.47;;;25.42;;
39218;SDS011;24934;52.752;6.964;2023-04-06T14:23:01;34.63;;;25.13;;